Time;durP1;ratioP1;P1;durP2;ratioP2;P2;SDS_P1;SDS_P2;PMS_P1;PMS_P2;Temp;Humidity;BMP_temperature;BMP_pressure;BME280_temperature;BME280_humidity;BME280_pressure;Samples;Min_cycle;Max_cycle;Signal;HPM_P1;HPM_P2
2022/06/23 00:01:27;;;;;;;4.50;2.40;;;;;;;14.19;71.58;100462.02;106877;1253;71801;-66
2022/06/23 00:03:57;;;;;;;3.40;2.10;;;;;;;14.11;71.34;100459.02;106949;1251;73653;-63
2022/06/23 00:06:45;;;;;;;3.40;2.30;;;;;;;14.03;70.81;100455.90;106952;1251;70941;-64
2022/06/23 00:09:45;;;;;;;6.10;2.30;;;;;;;13.98;71.87;100453.04;107077;1251;74186;-64
2022/06/23 00:12:18;;;;;;;2.60;2.20;;;;;;;13.94;71.91;100457.82;106873;1254;60935;-63
2022/06/23 00:14:56;;;;;;;3.80;2.10;;;;;;;13.83;72.12;100467.48;107120;1251;61235;-65
2022/06/23 00:17:28;;;;;;;4.00;2.20;;;;;;;13.70;72.89;100464.27;107113;1251;73185;-66
2022/06/23 00:20:01;;;;;;;3.60;2.30;;;;;;;13.56;73.07;100469.08;107066;1251;73065;-64
2022/06/23 00:22:32;;;;;;;6.10;2.60;;;;;;;13.44;72.69;100467.67;107114;1251;68580;-65
2022/06/23 00:25:04;;;;;;;4.60;2.90;;;;;;;13.36;73.96;100473.30;107074;1251;73879;-65
2022/06/23 00:27:38;;;;;;;4.60;2.80;;;;;;;13.32;73.95;100471.67;107073;1251;61076;-63
2022/06/23 00:30:26;;;;;;;4.70;2.70;;;;;;;13.29;74.82;100476.85;106905;1251;59695;-64
2022/06/23 00:32:54;;;;;;;4.80;2.70;;;;;;;13.27;75.10;100473.85;107112;1251;72867;-64
2022/06/23 00:35:21;;;;;;;5.10;3.00;;;;;;;13.23;75.25;100467.90;107117;1251;71619;-64
2022/06/23 00:37:51;;;;;;;4.00;2.60;;;;;;;13.25;75.21;100467.76;107072;1251;69156;-64
2022/06/23 00:40:23;;;;;;;5.50;2.60;;;;;;;13.22;75.28;100465.41;107104;1250;73206;-66
2022/06/23 00:43:03;;;;;;;3.60;2.60;;;;;;;13.23;75.23;100461.80;107092;1251;64155;-65
2022/06/23 00:45:45;;;;;;;3.90;2.60;;;;;;;13.31;74.66;100460.59;107094;1251;60664;-65
2022/06/23 00:48:40;;;;;;;3.00;2.50;;;;;;;13.24;74.93;100461.02;107059;1251;71386;-64
2022/06/23 00:51:13;;;;;;;4.80;2.60;;;;;;;13.15;75.05;100464.76;106821;1253;70349;-64
2022/06/23 00:54:15;;;;;;;3.40;3.10;;;;;;;13.10;74.61;100466.41;107008;1251;70890;-63
2022/06/23 00:56:52;;;;;;;7.30;4.00;;;;;;;13.05;74.70;100468.29;107017;1251;75840;-61
2022/06/23 00:59:45;;;;;;;3.90;2.90;;;;;;;12.98;75.60;100465.04;107019;1251;61307;-64
2022/06/23 01:02:20;;;;;;;3.20;2.80;;;;;;;12.91;76.02;100458.30;107029;1251;61283;-62
2022/06/23 01:05:01;;;;;;;6.20;2.90;;;;;;;12.86;76.32;100456.79;106879;1251;71527;-67
2022/06/23 01:08:12;;;;;;;4.40;2.60;;;;;;;12.84;75.56;100452.95;108034;1252;70772;-64
2022/06/23 01:10:55;;;;;;;5.10;2.90;;;;;;;12.81;76.07;100451.27;107054;1250;69778;-66
2022/06/23 01:13:26;;;;;;;;;;;;;;;12.79;74.99;100448.84;107124;1251;72752;-66
2022/06/23 01:16:13;;;;;;;4.90;2.90;;;;;;;12.79;74.87;100447.23;107074;1249;61356;-66
2022/06/23 01:19:02;;;;;;;3.00;2.20;;;;;;;12.83;75.82;100444.78;107118;1251;59571;-67
2022/06/23 01:21:42;;;;;;;3.30;2.10;;;;;;;12.84;75.23;100446.98;106996;1251;73941;-66
2022/06/23 01:24:39;;;;;;;7.20;2.90;;;;;;;12.88;75.07;100446.67;107018;1251;71654;-68
2022/06/23 01:28:00;;;;;;;3.30;2.50;;;;;;;12.84;74.58;100445.60;107156;1250;71420;-66
2022/06/23 01:31:01;;;;;;;3.60;2.50;;;;;;;12.75;74.71;100460.36;106991;1251;71154;-67
2022/06/23 01:33:44;;;;;;;4.60;2.80;;;;;;;12.63;76.66;100468.17;107004;1252;63136;-65
2022/06/23 01:36:40;;;;;;;3.90;2.70;;;;;;;12.61;77.08;100462.75;107067;1251;59662;-66
2022/06/23 01:40:00;;;;;;;4.60;3.00;;;;;;;12.60;77.24;100474.56;107066;1251;74060;-67
2022/06/23 01:42:58;;;;;;;3.40;2.90;;;;;;;12.58;77.48;100489.03;107059;1251;73455;-66
2022/06/23 01:45:37;;;;;;;4.90;2.90;;;;;;;12.58;77.15;100486.61;107000;1253;71130;-66
2022/06/23 01:51:30;;;;;;;4.70;2.90;;;;;;;12.61;77.15;100467.52;106978;1253;61395;-65
2022/06/23 01:54:13;;;;;;;6.30;2.90;;;;;;;12.61;77.07;100473.11;107178;1250;59047;-66
2022/06/23 01:56:54;;;;;;;4.20;2.80;;;;;;;12.60;77.04;100475.28;107155;1250;73296;-66
2022/06/23 01:59:36;;;;;;;4.50;2.70;;;;;;;12.57;77.32;100478.09;107143;1250;72583;-66
2022/06/23 02:02:10;;;;;;;5.50;3.00;;;;;;;12.59;76.85;100475.91;107010;1252;69447;-68
2022/06/23 02:04:45;;;;;;;5.50;3.00;;;;;;;12.55;76.95;100478.52;107020;1251;74006;-66
2022/06/23 02:07:39;;;;;;;6.40;3.10;;;;;;;12.54;77.17;100481.58;107141;1251;62764;-66
2022/06/23 02:10:44;;;;;;;4.70;2.80;;;;;;;12.55;77.31;100489.30;106774;1251;60336;-65
2022/06/23 02:13:29;;;;;;;4.20;2.90;;;;;;;12.50;77.27;100495.36;107171;1253;70937;-68
2022/06/23 02:16:18;;;;;;;5.80;3.50;;;;;;;12.49;76.70;100493.84;106955;1251;71620;-68
2022/06/23 02:19:04;;;;;;;6.60;3.80;;;;;;;12.45;76.85;100496.89;107137;1253;69278;-67
2022/06/23 02:21:51;;;;;;;7.50;3.30;;;;;;;12.47;77.42;100498.52;107208;1250;71582;-67
2022/06/23 02:24:44;;;;;;;5.60;3.10;;;;;;;12.49;77.71;100500.98;107107;1251;62092;-67
2022/06/23 02:27:49;;;;;;;7.90;4.60;;;;;;;12.48;77.42;100504.20;107059;1251;60810;-66
2022/06/23 02:30:24;;;;;;;5.30;3.00;;;;;;;12.61;77.06;100507.67;107134;1251;72344;-64
2022/06/23 02:33:14;;;;;;;7.70;3.70;;;;;;;12.61;77.17;100507.53;107088;1251;70308;-66
2022/06/23 02:36:16;;;;;;;6.60;3.40;;;;;;;12.60;77.16;100510.02;107040;1250;69945;-68
2022/06/23 02:38:56;;;;;;;5.60;3.40;;;;;;;12.63;77.12;100506.59;107184;1250;74952;-63
2022/06/23 02:41:45;;;;;;;6.00;3.10;;;;;;;12.64;76.47;100506.20;107170;1251;62562;-67
2022/06/23 02:44:19;;;;;;;5.10;3.90;;;;;;;12.63;76.91;100504.56;106999;1251;59711;-67
2022/06/23 02:47:14;;;;;;;8.70;4.10;;;;;;;12.61;76.89;100501.41;106843;1251;73983;-66
2022/06/23 02:50:06;;;;;;;7.00;3.80;;;;;;;12.70;76.69;100496.39;107288;1250;71114;-66
2022/06/23 02:52:59;;;;;;;6.40;4.40;;;;;;;12.80;76.28;100491.58;107092;1250;71131;-66
2022/06/23 02:55:39;;;;;;;;;;;;;;;12.92;75.68;100490.33;107171;1251;71998;-66
2022/06/23 02:58:19;;;;;;;8.90;4.30;;;;;;;12.97;75.36;100493.20;107020;1250;62020;-67
2022/06/23 03:01:19;;;;;;;8.50;4.50;;;;;;;13.04;74.98;100494.25;107093;1251;59590;-65
2022/06/23 03:04:12;;;;;;;9.50;4.40;;;;;;;13.08;74.86;100492.70;106918;1250;71885;-67
2022/06/23 03:06:54;;;;;;;9.80;4.10;;;;;;;13.20;74.23;100488.31;107071;1251;70931;-66
2022/06/23 03:09:35;;;;;;;8.50;3.60;;;;;;;13.21;73.94;100491.84;106864;1253;69045;-65
2022/06/23 03:12:15;;;;;;;6.80;3.50;;;;;;;13.22;73.85;100489.83;106933;1254;70750;-69
2022/06/23 03:15:01;;;;;;;4.40;3.30;;;;;;;13.25;73.57;100486.50;107241;1250;63455;-70
2022/06/23 03:17:32;;;;;;;6.30;3.50;;;;;;;13.30;73.52;100488.30;107253;1251;61586;-66
2022/06/23 03:20:18;;;;;;;5.30;3.60;;;;;;;13.38;73.14;100489.89;107029;1251;73051;-66
2022/06/23 03:23:05;;;;;;;7.20;3.90;;;;;;;13.40;73.10;100484.66;107277;1250;73247;-70
2022/06/23 03:26:05;;;;;;;8.20;4.60;;;;;;;13.44;73.00;100485.11;107135;1250;70439;-67
2022/06/23 03:28:49;;;;;;;8.10;3.60;;;;;;;13.54;72.76;100486.02;106848;1252;74051;-67
2022/06/23 03:31:37;;;;;;;5.60;3.40;;;;;;;13.62;72.22;100481.45;107078;1250;62863;-66
2022/06/23 03:34:30;;;;;;;6.00;3.20;;;;;;;13.71;71.78;100472.45;107052;1253;59186;-66
2022/06/23 03:37:44;;;;;;;8.50;3.80;;;;;;;13.76;71.70;100472.73;107260;1252;71922;-65
2022/06/23 03:43:33;;;;;;;6.40;3.30;;;;;;;13.90;71.20;100486.51;107131;1250;70069;-64
2022/06/23 03:46:20;;;;;;;7.10;3.60;;;;;;;13.97;70.99;100487.61;106954;1253;73929;-65
2022/06/23 03:49:18;;;;;;;6.60;3.30;;;;;;;14.08;70.63;100485.40;107163;1251;61540;-65
2022/06/23 03:51:55;;;;;;;4.80;2.80;;;;;;;14.22;70.39;100491.88;106948;1253;59456;-64
2022/06/23 03:54:28;;;;;;;4.60;3.00;;;;;;;14.46;69.46;100490.70;107043;1251;74019;-64
2022/06/23 03:57:21;;;;;;;5.40;3.10;;;;;;;14.71;68.34;100496.45;107146;1250;72951;-64
2022/06/23 04:00:26;;;;;;;5.70;3.00;;;;;;;14.97;67.60;100501.05;107050;1250;70608;-68
2022/06/23 04:03:38;;;;;;;5.00;3.20;;;;;;;15.20;66.21;100497.94;106864;1252;72755;-67
2022/06/23 04:06:45;;;;;;;7.00;2.70;;;;;;;15.40;65.63;100493.77;107078;1251;60285;-66
2022/06/23 04:09:32;;;;;;;4.20;2.50;;;;;;;15.57;64.55;100491.94;106900;1253;60190;-69
2022/06/23 04:12:08;;;;;;;4.40;3.00;;;;;;;15.71;64.30;100491.69;107239;1251;72035;-67
2022/06/23 04:14:59;;;;;;;5.80;2.90;;;;;;;15.83;63.79;100494.90;107197;1250;70748;-65
2022/06/23 04:17:40;;;;;;;4.80;2.90;;;;;;;15.96;63.63;100494.69;107061;1253;67828;-65
2022/06/23 04:20:48;;;;;;;6.60;3.40;;;;;;;16.08;63.34;100503.34;107093;1251;73219;-65
2022/06/23 04:23:29;;;;;;;5.60;3.50;;;;;;;16.23;62.86;100512.05;107154;1251;59174;-66
2022/06/23 04:25:59;;;;;;;4.00;2.70;;;;;;;16.34;62.43;100514.45;107255;1250;61302;-65
2022/06/23 04:28:42;;;;;;;3.90;2.40;;;;;;;16.45;61.60;100512.60;107046;1253;71724;-67
2022/06/23 04:31:24;;;;;;;4.60;2.70;;;;;;;16.53;61.15;100519.94;107166;1251;71785;-70
2022/06/23 04:33:53;;;;;;;4.50;2.80;;;;;;;16.61;60.88;100522.05;107191;1251;69191;-69
2022/06/23 04:36:28;;;;;;;4.70;2.60;;;;;;;16.69;60.57;100521.10;107217;1251;72013;-67
2022/06/23 04:39:25;;;;;;;4.70;2.30;;;;;;;16.78;60.26;100517.92;107246;1250;59755;-65
2022/06/23 04:42:23;;;;;;;5.40;3.00;;;;;;;16.89;59.86;100529.86;107296;1250;60217;-69
2022/06/23 04:45:23;;;;;;;5.10;2.80;;;;;;;16.99;59.69;100536.23;107302;1250;73139;-67
2022/06/23 04:47:55;;;;;;;5.10;2.80;;;;;;;17.10;59.17;100536.68;107314;1250;71652;-65
2022/06/23 04:50:42;;;;;;;4.20;2.70;;;;;;;17.20;58.96;100535.27;107034;1251;69321;-70
2022/06/23 04:53:41;;;;;;;5.00;2.70;;;;;;;17.31;58.87;100529.61;107271;1250;74021;-68
2022/06/23 04:56:34;;;;;;;5.40;3.00;;;;;;;17.38;58.35;100526.25;107165;1253;60487;-70
2022/06/23 04:59:16;;;;;;;;;;;;;;;17.52;58.08;100522.52;107087;1250;60897;-72
2022/06/23 05:01:48;;;;;;;7.00;2.90;;;;;;;17.62;57.82;100517.40;107138;1251;73375;-74
2022/06/23 05:04:27;;;;;;;4.10;2.70;;;;;;;17.76;57.61;100519.98;107292;1250;73817;-73
2022/06/23 05:06:59;;;;;;;9.40;2.80;;;;;;;17.89;57.12;100516.30;107054;1251;69244;-67
2022/06/23 05:09:40;;;;;;;5.30;2.50;;;;;;;18.00;56.67;100517.91;107244;1251;73182;-81
2022/06/23 05:16:47;;;;;;;2.90;2.40;;;;;;;18.22;55.11;100512.73;104478;1285;602233;-82
2022/06/23 05:19:31;;;;;;;3.20;2.30;;;;;;;18.22;55.11;100512.58;107360;1253;57145;-71
2022/06/23 05:22:16;;;;;;;3.40;2.50;;;;;;;18.28;54.96;100515.98;107335;1253;59911;-72
2022/06/23 05:24:47;;;;;;;3.60;1.80;;;;;;;18.36;54.85;100519.95;107298;1252;70050;-72
2022/06/23 05:27:34;;;;;;;3.70;2.30;;;;;;;18.42;54.45;100505.83;107203;1253;60752;-71
2022/06/23 05:30:14;;;;;;;6.30;2.60;;;;;;;18.48;54.00;100511.14;106909;1250;383696;-71
2022/06/23 05:32:50;;;;;;;5.20;2.40;;;;;;;18.53;53.75;100506.90;107250;1252;63309;-72
2022/06/23 05:35:29;;;;;;;4.30;2.40;;;;;;;18.53;53.91;100499.83;107463;1249;61768;-75
2022/06/23 05:38:16;;;;;;;6.10;2.40;;;;;;;18.66;53.56;100517.54;109566;1249;61938;-70
2022/06/23 05:40:51;;;;;;;4.00;2.50;;;;;;;18.81;53.29;100512.65;107460;1250;70473;-73
2022/06/23 05:43:21;;;;;;;6.20;2.40;;;;;;;18.89;52.94;100519.56;107169;1251;60912;-73
2022/06/23 05:45:55;;;;;;;3.50;2.30;;;;;;;18.99;52.78;100523.05;107147;1252;59252;-72
2022/06/23 05:48:37;;;;;;;3.10;2.20;;;;;;;19.07;52.46;100530.51;107271;1253;63320;-74
2022/06/23 05:51:06;;;;;;;3.30;2.20;;;;;;;19.11;52.20;100531.75;107209;1252;61339;-70
2022/06/23 05:53:53;;;;;;;4.20;2.30;;;;;;;19.11;52.34;100536.05;106881;1253;59063;-72
2022/06/23 05:56:49;;;;;;;6.80;2.40;;;;;;;19.16;52.01;100537.21;107135;1251;61754;-72
2022/06/23 05:59:26;;;;;;;7.10;2.80;;;;;;;19.18;52.03;100543.94;107074;1253;72235;-69
2022/06/23 06:02:12;;;;;;;5.60;2.50;;;;;;;19.24;51.97;100540.73;107214;1251;60401;-73
2022/06/23 06:04:52;;;;;;;4.10;2.10;;;;;;;19.34;51.86;100552.19;107140;1251;63304;-75
2022/06/23 06:07:27;;;;;;;3.50;2.70;;;;;;;19.47;51.33;100550.86;107240;1249;58820;-73
2022/06/23 06:09:56;;;;;;;3.10;2.10;;;;;;;19.50;51.44;100547.38;107367;1250;59061;-73
2022/06/23 06:12:38;;;;;;;3.40;2.20;;;;;;;19.51;51.07;100550.36;107049;1251;62842;-70
2022/06/23 06:15:26;;;;;;;3.40;2.30;;;;;;;19.50;50.91;100546.16;107327;1250;61632;-73
2022/06/23 06:18:14;;;;;;;4.50;2.50;;;;;;;19.60;51.06;100555.95;106996;1252;69761;-71
2022/06/23 06:20:43;;;;;;;3.50;2.10;;;;;;;19.68;50.79;100551.50;107096;1251;62978;-68
2022/06/23 06:23:39;;;;;;;3.20;2.10;;;;;;;19.71;50.57;100553.37;107140;1251;57923;-70
2022/06/23 06:26:16;;;;;;;5.50;2.20;;;;;;;19.74;50.73;100546.59;107015;1251;60516;-69
2022/06/23 06:28:45;;;;;;;8.70;2.50;;;;;;;19.95;50.65;100559.43;107138;1250;74768;-73
2022/06/23 06:31:38;;;;;;;5.70;2.30;;;;;;;20.09;49.76;100557.77;107181;1250;72487;-72
2022/06/23 06:34:14;;;;;;;3.90;2.50;;;;;;;20.19;49.21;100552.58;107124;1252;59126;-69
2022/06/23 06:36:50;;;;;;;6.50;2.60;;;;;;;20.28;48.77;100575.70;107170;1250;72683;-71
2022/06/23 06:39:22;;;;;;;4.00;2.50;;;;;;;20.26;48.40;100548.61;107178;1251;60396;-68
2022/06/23 06:42:22;;;;;;;4.80;2.20;;;;;;;20.28;48.39;100562.48;107210;1251;61734;-70
2022/06/23 06:44:56;;;;;;;3.70;2.40;;;;;;;20.23;48.61;100557.55;107076;1251;62101;-69
2022/06/23 06:47:29;;;;;;;3.60;2.30;;;;;;;20.25;48.58;100555.38;107167;1251;71419;-72
2022/06/23 06:50:05;;;;;;;3.60;2.60;;;;;;;20.26;48.61;100558.79;107249;1250;70721;-70
2022/06/23 06:52:35;;;;;;;3.70;2.20;;;;;;;20.31;48.74;100553.27;107245;1250;63823;-72
2022/06/23 06:55:12;;;;;;;3.20;2.10;;;;;;;20.45;48.45;100559.60;107107;1250;59057;-70
2022/06/23 06:58:02;;;;;;;5.30;2.10;;;;;;;20.61;48.18;100566.98;107150;1251;61425;-72
2022/06/23 07:00:51;;;;;;;4.90;2.20;;;;;;;20.60;47.83;100552.92;107104;1250;72489;-71
2022/06/23 07:03:24;;;;;;;3.00;2.30;;;;;;;20.76;47.41;100557.95;107214;1251;72092;-72
2022/06/23 07:06:01;;;;;;;6.80;2.60;;;;;;;20.87;47.35;100547.13;107410;1250;68431;-72
2022/06/23 07:08:39;;;;;;;6.30;2.10;;;;;;;21.04;46.98;100551.39;107341;1250;74629;-73
2022/06/23 07:11:26;;;;;;;4.10;2.20;;;;;;;21.13;46.58;100562.45;107351;1251;59145;-70
2022/06/23 07:14:20;;;;;;;4.10;2.10;;;;;;;21.19;46.73;100560.75;107308;1251;59229;-71
2022/06/23 07:17:05;;;;;;;4.90;2.10;;;;;;;21.23;46.04;100561.38;107204;1250;62545;-72
2022/06/23 07:19:59;;;;;;;5.60;2.10;;;;;;;21.34;45.63;100567.54;107290;1250;71441;-73
2022/06/23 07:22:42;;;;;;;3.80;2.30;;;;;;;21.38;45.40;100574.46;107312;1251;60498;-73
2022/06/23 07:25:21;;;;;;;3.30;1.90;;;;;;;21.55;44.97;100557.91;107193;1250;74084;-75
2022/06/23 07:28:18;;;;;;;3.70;2.00;;;;;;;21.49;45.08;100554.94;107333;1251;61165;-74
2022/06/23 07:30:57;;;;;;;3.50;1.90;;;;;;;21.42;45.76;100562.17;107444;1251;58287;-74
2022/06/23 07:33:37;;;;;;;2.50;1.80;;;;;;;21.47;45.47;100565.23;107307;1251;62156;-73
2022/06/23 07:36:43;;;;;;;5.80;2.30;;;;;;;21.48;45.42;100565.71;107151;1250;62370;-72
2022/06/23 07:39:38;;;;;;;5.10;2.00;;;;;;;21.35;45.55;100566.66;107277;1251;59223;-71
2022/06/23 07:42:22;;;;;;;3.20;2.00;;;;;;;21.29;45.57;100576.98;107408;1251;65500;-72
2022/06/23 07:45:02;;;;;;;3.40;2.10;;;;;;;21.08;46.09;100565.52;107374;1251;61364;-70
2022/06/23 07:47:31;;;;;;;5.30;2.00;;;;;;;21.11;46.33;100562.13;107293;1251;58870;-73
2022/06/23 07:50:02;;;;;;;2.30;1.70;;;;;;;21.28;45.70;100564.35;107330;1250;61882;-71
2022/06/23 07:52:31;;;;;;;12.50;2.20;;;;;;;21.28;45.73;100562.92;107576;1249;61655;-69
2022/06/23 07:55:03;;;;;;;6.90;2.20;;;;;;;21.38;45.82;100563.11;107196;1250;69303;-73
2022/06/23 07:57:33;;;;;;;3.80;2.20;;;;;;;21.54;45.43;100556.81;107181;1250;62975;-70
2022/06/23 08:00:07;;;;;;;4.20;2.30;;;;;;;21.70;45.33;100563.66;107331;1251;60549;-69
2022/06/23 08:02:54;;;;;;;4.30;1.90;;;;;;;21.77;45.24;100552.40;107250;1251;60548;-71
2022/06/23 08:05:36;;;;;;;3.20;1.80;;;;;;;22.03;44.44;100557.14;107250;1251;73625;-72
2022/06/23 08:08:11;;;;;;;3.00;1.60;;;;;;;21.95;43.91;100558.54;107325;1251;61267;-68
2022/06/23 08:10:40;;;;;;;3.70;1.70;;;;;;;21.79;44.50;100566.13;107341;1250;59949;-70
2022/06/23 08:13:18;;;;;;;4.40;1.80;;;;;;;22.01;43.97;100563.10;107435;1251;74012;-71
2022/06/23 08:18:56;;;;;;;3.40;2.00;;;;;;;22.28;43.54;100560.36;107448;1250;61694;-71
2022/06/23 08:21:36;;;;;;;4.30;2.10;;;;;;;22.30;43.94;100554.86;107467;1251;62599;-71
2022/06/23 08:24:10;;;;;;;3.10;2.10;;;;;;;22.49;43.46;100556.21;107633;1251;72237;-72
2022/06/23 08:26:45;;;;;;;3.70;2.20;;;;;;;22.43;43.66;100547.60;107612;1250;59808;-73
2022/06/23 08:29:19;;;;;;;2.90;1.90;;;;;;;22.64;43.14;100552.59;107539;1251;73175;-71
2022/06/23 08:31:48;;;;;;;2.60;2.10;;;;;;;22.76;42.45;100556.38;107329;1250;62695;-72
2022/06/23 08:34:31;;;;;;;4.90;2.10;;;;;;;22.47;42.94;100557.38;107279;1251;60979;-69
2022/06/23 08:37:18;;;;;;;7.80;2.40;;;;;;;22.56;42.95;100551.84;107331;1251;73432;-71
2022/06/23 08:39:53;;;;;;;3.70;1.90;;;;;;;22.40;43.18;100552.86;107501;1250;62472;-71
2022/06/23 08:42:59;;;;;;;2.60;1.90;;;;;;;22.46;43.17;100556.97;107398;1251;60093;-68
2022/06/23 08:45:42;;;;;;;7.00;2.20;;;;;;;22.77;42.32;100558.02;107432;1251;73928;-72
2022/06/23 08:48:45;;;;;;;8.60;2.30;;;;;;;22.70;42.35;100557.48;107344;1250;61859;-72
2022/06/23 08:52:01;;;;;;;2.80;1.70;;;;;;;22.72;41.99;100562.91;107484;1251;59085;-73
2022/06/23 08:55:10;;;;;;;2.60;1.80;;;;;;;23.00;41.56;100560.64;107210;1251;62568;-72
2022/06/23 08:58:49;;;;;;;3.40;1.90;;;;;;;23.15;41.21;100564.77;107388;1251;72456;-73
2022/06/23 09:01:38;;;;;;;3.10;2.00;;;;;;;23.15;40.86;100571.49;107111;1251;68291;-69
2022/06/23 09:04:26;;;;;;;3.60;2.20;;;;;;;23.03;41.27;100572.02;107476;1250;63362;-73
2022/06/23 09:07:02;;;;;;;2.40;2.00;;;;;;;23.15;41.33;100565.06;107332;1250;57536;-75
2022/06/23 09:09:53;;;;;;;2.30;1.70;;;;;;;23.22;40.89;100570.42;107467;1251;57913;-71
2022/06/23 09:12:46;;;;;;;6.90;1.90;;;;;;;23.08;41.18;100570.83;107139;1251;72904;-71
2022/06/23 09:15:34;;;;;;;4.00;2.10;;;;;;;22.84;41.79;100577.70;107322;1251;62605;-68
2022/06/23 09:18:47;;;;;;;3.80;1.90;;;;;;;22.80;42.03;100581.84;107633;1251;61052;-71
2022/06/23 09:21:37;;;;;;;3.50;2.10;;;;;;;22.59;42.30;100591.05;107593;1250;74186;-70
2022/06/23 09:24:25;;;;;;;2.40;1.80;;;;;;;22.63;41.84;100594.90;107433;1251;58374;-76
2022/06/23 09:27:15;;;;;;;5.80;2.20;;;;;;;22.45;41.85;100593.64;107503;1249;57393;-73
2022/06/23 09:30:04;;;;;;;6.00;2.80;;;;;;;22.24;42.39;100600.52;107335;1251;62288;-75
2022/06/23 09:33:37;;;;;;;2.90;2.20;;;;;;;22.04;42.86;100593.02;107186;1251;62057;-74
2022/06/23 09:36:40;;;;;;;4.70;2.00;;;;;;;22.03;43.04;100590.46;107587;1249;70602;-74
2022/06/23 09:39:23;;;;;;;3.90;2.10;;;;;;;22.23;42.90;100591.30;107399;1251;65532;-75
2022/06/23 09:42:47;;;;;;;2.90;1.80;;;;;;;22.52;42.00;100602.42;107129;1251;59076;-72
2022/06/23 09:45:29;;;;;;;4.70;2.20;;;;;;;22.55;41.83;100589.89;107233;1251;58983;-70
2022/06/23 09:48:14;;;;;;;3.40;2.00;;;;;;;22.60;41.97;100583.25;107512;1251;63504;-75
2022/06/23 09:51:18;;;;;;;4.10;2.10;;;;;;;22.62;42.12;100587.23;107363;1251;61242;-72
2022/06/23 09:54:40;;;;;;;3.30;1.90;;;;;;;22.39;42.39;100593.38;107435;1251;59224;-71
2022/06/23 09:57:45;;;;;;;4.20;2.40;;;;;;;22.32;42.62;100595.11;107173;1251;62525;-72
2022/06/23 10:00:20;;;;;;;4.00;2.00;;;;;;;22.28;42.97;100597.86;107473;1250;62167;-69
2022/06/23 10:03:17;;;;;;;3.40;2.00;;;;;;;22.37;42.97;100601.27;107327;1251;60681;-71
2022/06/23 10:06:07;;;;;;;4.00;2.60;;;;;;;22.52;42.75;100605.73;107353;1251;74247;-71
2022/06/23 10:09:29;;;;;;;2.80;2.00;;;;;;;22.46;42.58;100596.18;107358;1250;61242;-76
2022/06/23 10:12:16;;;;;;;4.30;2.20;;;;;;;22.27;43.22;100597.73;107336;1251;70473;-77
2022/06/23 10:15:17;;;;;;;3.50;2.20;;;;;;;22.26;43.35;100589.44;107347;1251;74350;-70
2022/06/23 10:18:22;;;;;;;7.40;2.20;;;;;;;22.34;43.26;100596.63;107200;1251;61469;-76
2022/06/23 10:21:37;;;;;;;3.40;2.10;;;;;;;22.29;43.34;100597.91;107372;1251;58997;-72
2022/06/23 10:24:39;;;;;;;3.10;2.00;;;;;;;22.20;43.48;100609.04;107322;1251;63228;-75
2022/06/23 10:27:31;;;;;;;3.80;2.30;;;;;;;22.20;43.43;100598.40;107044;1251;72182;-73
2022/06/23 10:30:25;;;;;;;5.10;2.30;;;;;;;22.26;43.34;100602.42;107119;1251;60250;-71
2022/06/23 10:33:25;;;;;;;4.50;2.30;;;;;;;22.22;43.33;100605.09;107371;1251;64079;-72
2022/06/23 10:36:21;;;;;;;3.80;2.10;;;;;;;22.19;43.59;100602.57;107200;1251;61370;-73
2022/06/23 10:39:48;;;;;;;2.80;2.00;;;;;;;22.54;42.84;100594.49;107309;1250;60997;-73
2022/06/23 10:42:22;;;;;;;4.10;2.10;;;;;;;22.70;42.31;100599.88;106898;1251;75473;-73
2022/06/23 10:45:36;;;;;;;4.40;2.10;;;;;;;22.72;42.21;100589.16;107333;1251;61447;-70
2022/06/23 10:48:13;;;;;;;2.90;2.20;;;;;;;22.76;42.49;100586.92;107405;1249;70422;-73
2022/06/23 10:51:33;;;;;;;6.90;2.20;;;;;;;23.01;42.01;100583.77;107417;1250;63738;-71
2022/06/23 10:54:40;;;;;;;6.50;2.10;;;;;;;23.36;41.29;100585.79;107203;1250;59059;-70
2022/06/23 10:57:44;;;;;;;6.90;2.00;;;;;;;23.32;41.04;100593.10;107413;1250;60333;-74
2022/06/23 11:00:51;;;;;;;3.90;2.00;;;;;;;23.40;40.87;100587.77;107141;1250;65384;-73
2022/06/23 11:04:00;;;;;;;3.40;2.00;;;;;;;23.54;40.59;100591.50;107289;1250;71817;-74
2022/06/23 11:07:00;;;;;;;4.10;2.20;;;;;;;23.52;40.29;100585.58;107075;1251;70812;-70
2022/06/23 11:10:18;;;;;;;6.30;2.10;;;;;;;23.57;40.67;100585.11;107138;1251;74300;-74
2022/06/23 11:12:57;;;;;;;4.10;2.10;;;;;;;23.55;39.98;100591.30;107253;1251;61947;-71
2022/06/23 11:16:14;;;;;;;4.20;2.20;;;;;;;23.58;39.65;100589.44;107225;1250;59145;-71
2022/06/23 11:19:17;;;;;;;3.60;2.20;;;;;;;23.55;39.70;100590.02;107049;1252;62190;-69
2022/06/23 11:22:15;;;;;;;2.70;2.00;;;;;;;23.52;39.79;100587.02;107374;1250;72884;-73
2022/06/23 11:25:02;;;;;;;5.00;1.90;;;;;;;23.45;39.79;100585.17;107498;1249;60376;-73
2022/06/23 11:27:58;;;;;;;3.40;1.90;;;;;;;23.47;39.78;100589.29;107466;1250;73918;-72
2022/06/23 11:31:21;;;;;;;3.70;1.90;;;;;;;23.46;39.72;100595.92;107310;1251;61533;-66
2022/06/23 11:34:11;;;;;;;2.80;2.10;;;;;;;23.65;39.52;100586.36;107215;1251;61841;-73
2022/06/23 11:36:52;;;;;;;3.20;1.90;;;;;;;23.65;39.26;100590.95;107352;1251;62842;-74
2022/06/23 11:39:39;;;;;;;4.90;1.90;;;;;;;23.59;39.00;100591.27;107338;1251;61759;-72
2022/06/23 11:42:45;;;;;;;3.60;2.00;;;;;;;23.63;39.23;100592.70;107327;1251;60043;-73
2022/06/23 11:45:43;;;;;;;3.50;1.90;;;;;;;23.74;38.91;100600.38;107386;1251;70836;-74
2022/06/23 11:48:44;;;;;;;5.60;1.80;;;;;;;23.60;39.30;100593.59;107290;1250;58281;-71
2022/06/23 11:52:10;;;;;;;3.40;2.00;;;;;;;23.74;39.17;100590.41;107503;1251;60520;-74
2022/06/23 11:54:54;;;;;;;8.10;2.00;;;;;;;23.83;39.08;100589.42;107371;1251;74086;-72
2022/06/23 11:57:34;;;;;;;2.60;1.60;;;;;;;23.81;39.00;100581.65;107469;1249;72647;-73
2022/06/23 12:00:23;;;;;;;8.00;2.10;;;;;;;23.89;38.88;100582.17;107546;1250;59901;-74
2022/06/23 12:03:22;;;;;;;3.50;2.00;;;;;;;24.12;38.53;100578.77;107291;1250;62490;-73
2022/06/23 12:06:12;;;;;;;4.00;1.60;;;;;;;24.30;38.05;100585.02;107362;1250;60593;-70
2022/06/23 12:09:06;;;;;;;4.30;1.80;;;;;;;24.51;37.41;100588.27;107386;1251;58557;-72
2022/06/23 12:11:37;;;;;;;4.80;1.80;;;;;;;24.50;36.97;100579.59;107337;1251;72947;-73
2022/06/23 12:14:08;;;;;;;3.00;2.00;;;;;;;24.35;37.29;100582.52;107290;1249;63127;-69
2022/06/23 12:16:47;;;;;;;5.40;2.00;;;;;;;24.34;37.50;100582.84;107341;1251;70523;-70
2022/06/23 12:19:22;;;;;;;4.10;1.80;;;;;;;24.54;37.12;100578.15;107182;1250;73814;-73
2022/06/23 12:21:59;;;;;;;2.40;1.70;;;;;;;24.42;37.51;100578.42;107297;1251;58919;-68
2022/06/23 12:24:36;;;;;;;3.80;1.80;;;;;;;24.32;37.22;100581.69;107170;1251;59251;-74
2022/06/23 12:27:28;;;;;;;3.40;1.70;;;;;;;24.32;37.50;100592.13;107507;1250;73538;-72
2022/06/23 12:30:10;;;;;;;2.20;1.50;;;;;;;24.45;36.85;100585.63;107425;1251;71950;-73
2022/06/23 12:33:18;;;;;;;2.30;1.70;;;;;;;24.36;37.25;100590.19;107103;1251;71166;-73
2022/06/23 12:36:00;;;;;;;3.60;1.50;;;;;;;24.25;37.64;100594.86;107124;1252;64735;-70
2022/06/23 12:38:55;;;;;;;3.40;1.70;;;;;;;24.28;37.34;100594.51;107191;1253;59293;-71
2022/06/23 12:41:31;;;;;;;3.90;1.70;;;;;;;24.02;37.89;100588.83;107368;1251;58870;-71
2022/06/23 12:44:30;;;;;;;3.70;1.50;;;;;;;23.98;37.97;100593.28;107351;1251;62726;-73
2022/06/23 12:47:35;;;;;;;3.40;1.70;;;;;;;23.89;38.00;100589.31;107228;1251;71739;-75
2022/06/23 12:50:10;;;;;;;3.40;1.60;;;;;;;23.88;38.18;100586.19;107323;1251;70864;-74
2022/06/23 12:53:26;;;;;;;6.20;1.90;;;;;;;23.80;38.28;100589.08;107314;1250;74927;-74
2022/06/23 12:56:41;;;;;;;4.00;2.10;;;;;;;23.87;38.16;100590.45;107399;1250;61696;-68
2022/06/23 12:59:51;;;;;;;3.30;1.90;;;;;;;23.90;38.46;100593.14;107285;1250;61867;-70
2022/06/23 13:02:39;;;;;;;4.70;1.80;;;;;;;23.94;38.54;100596.13;107425;1250;63450;-71
2022/06/23 13:05:36;;;;;;;6.50;2.10;;;;;;;23.95;38.74;100594.95;107467;1251;72325;-75